sensor_id;sensor_type;location;lat;lon;timestamp;P1;durP1;ratioP1;P2;durP2;ratioP2
66707;SDS011;53622;0.000;0.000;2023-10-13T00:02:11;3.95;;;3.60;;
66707;SDS011;53622;0.000;0.000;2023-10-13T00:04:41;3.70;;;3.40;;
66707;SDS011;53622;0.000;0.000;2023-10-13T00:07:10;3.83;;;3.40;;
66707;SDS011;53622;0.000;0.000;2023-10-13T00:09:39;4.45;;;4.05;;
66707;SDS011;53622;0.000;0.000;2023-10-13T00:12:08;4.43;;;4.05;;
66707;SDS011;53622;0.000;0.000;2023-10-13T00:14:42;4.25;;;3.95;;
66707;SDS011;53622;0.000;0.000;2023-10-13T00:17:12;4.22;;;3.60;;
66707;SDS011;53622;0.000;0.000;2023-10-13T00:19:47;3.95;;;3.65;;
66707;SDS011;53622;0.000;0.000;2023-10-13T00:22:20;4.38;;;3.97;;
66707;SDS011;53622;0.000;0.000;2023-10-13T00:24:50;4.22;;;3.75;;
66707;SDS011;53622;0.000;0.000;2023-10-13T00:27:26;4.32;;;3.97;;
66707;SDS011;53622;0.000;0.000;2023-10-13T00:30:02;5.00;;;4.32;;
66707;SDS011;53622;0.000;0.000;2023-10-13T00:32:45;4.68;;;3.80;;
66707;SDS011;53622;0.000;0.000;2023-10-13T00:35:20;4.00;;;3.70;;
66707;SDS011;53622;0.000;0.000;2023-10-13T00:37:55;4.07;;;3.75;;
66707;SDS011;53622;0.000;0.000;2023-10-13T00:40:26;4.05;;;3.75;;
66707;SDS011;53622;0.000;0.000;2023-10-13T00:43:09;4.20;;;3.80;;
66707;SDS011;53622;0.000;0.000;2023-10-13T00:46:01;4.32;;;3.92;;
66707;SDS011;53622;0.000;0.000;2023-10-13T00:48:40;4.65;;;4.25;;
66707;SDS011;53622;0.000;0.000;2023-10-13T00:51:16;4.55;;;3.90;;
66707;SDS011;53622;0.000;0.000;2023-10-13T00:53:49;3.83;;;3.50;;
66707;SDS011;53622;0.000;0.000;2023-10-13T00:56:19;4.07;;;3.78;;
66707;SDS011;53622;0.000;0.000;2023-10-13T00:58:49;3.85;;;3.55;;
66707;SDS011;53622;0.000;0.000;2023-10-13T01:01:21;4.18;;;3.88;;
66707;SDS011;53622;0.000;0.000;2023-10-13T01:03:49;4.25;;;3.92;;
66707;SDS011;53622;0.000;0.000;2023-10-13T01:06:22;3.90;;;3.60;;
66707;SDS011;53622;0.000;0.000;2023-10-13T01:08:58;4.28;;;3.97;;
66707;SDS011;53622;0.000;0.000;2023-10-13T01:11:38;4.13;;;3.75;;
66707;SDS011;53622;0.000;0.000;2023-10-13T01:14:07;3.90;;;3.60;;
66707;SDS011;53622;0.000;0.000;2023-10-13T01:16:39;3.97;;;3.58;;
66707;SDS011;53622;0.000;0.000;2023-10-13T01:19:11;3.90;;;3.50;;
66707;SDS011;53622;0.000;0.000;2023-10-13T01:21:41;4.88;;;3.78;;
66707;SDS011;53622;0.000;0.000;2023-10-13T01:24:10;4.07;;;3.78;;
66707;SDS011;53622;0.000;0.000;2023-10-13T01:26:43;4.00;;;3.60;;
66707;SDS011;53622;0.000;0.000;2023-10-13T01:29:11;4.25;;;3.78;;
66707;SDS011;53622;0.000;0.000;2023-10-13T01:31:42;3.97;;;3.53;;
66707;SDS011;53622;0.000;0.000;2023-10-13T01:34:15;4.28;;;3.90;;
66707;SDS011;53622;0.000;0.000;2023-10-13T01:36:49;4.50;;;3.40;;
66707;SDS011;53622;0.000;0.000;2023-10-13T01:39:20;3.85;;;3.55;;
66707;SDS011;53622;0.000;0.000;2023-10-13T01:41:53;4.22;;;3.83;;
66707;SDS011;53622;0.000;0.000;2023-10-13T01:44:23;3.75;;;3.45;;
66707;SDS011;53622;0.000;0.000;2023-10-13T01:46:55;4.03;;;3.60;;
66707;SDS011;53622;0.000;0.000;2023-10-13T01:49:27;3.88;;;3.58;;
66707;SDS011;53622;0.000;0.000;2023-10-13T01:51:56;3.88;;;3.58;;
66707;SDS011;53622;0.000;0.000;2023-10-13T01:54:28;4.05;;;3.75;;
66707;SDS011;53622;0.000;0.000;2023-10-13T01:56:56;3.88;;;3.45;;
66707;SDS011;53622;0.000;0.000;2023-10-13T01:59:26;3.70;;;3.40;;
66707;SDS011;53622;0.000;0.000;2023-10-13T02:01:55;4.07;;;3.78;;
66707;SDS011;53622;0.000;0.000;2023-10-13T02:04:27;3.80;;;3.50;;
66707;SDS011;53622;0.000;0.000;2023-10-13T02:07:00;3.40;;;3.10;;
66707;SDS011;53622;0.000;0.000;2023-10-13T02:09:29;3.63;;;3.33;;
66707;SDS011;53622;0.000;0.000;2023-10-13T02:12:02;3.50;;;3.25;;
66707;SDS011;53622;0.000;0.000;2023-10-13T02:14:31;3.47;;;3.20;;
66707;SDS011;53622;0.000;0.000;2023-10-13T02:17:00;4.03;;;3.65;;
66707;SDS011;53622;0.000;0.000;2023-10-13T02:19:40;3.97;;;3.63;;
66707;SDS011;53622;0.000;0.000;2023-10-13T02:22:12;4.28;;;3.53;;
66707;SDS011;53622;0.000;0.000;2023-10-13T02:24:54;4.13;;;3.83;;
66707;SDS011;53622;0.000;0.000;2023-10-13T02:27:29;3.70;;;3.40;;
66707;SDS011;53622;0.000;0.000;2023-10-13T02:30:08;3.70;;;3.40;;
66707;SDS011;53622;0.000;0.000;2023-10-13T02:32:41;4.00;;;3.40;;
66707;SDS011;53622;0.000;0.000;2023-10-13T02:35:11;3.72;;;3.42;;
66707;SDS011;53622;0.000;0.000;2023-10-13T02:37:42;3.90;;;3.60;;
66707;SDS011;53622;0.000;0.000;2023-10-13T02:40:22;3.85;;;3.55;;
66707;SDS011;53622;0.000;0.000;2023-10-13T02:42:50;3.33;;;3.13;;
66707;SDS011;53622;0.000;0.000;2023-10-13T02:45:20;4.13;;;3.72;;
66707;SDS011;53622;0.000;0.000;2023-10-13T02:47:52;4.55;;;3.60;;
66707;SDS011;53622;0.000;0.000;2023-10-13T02:50:39;3.78;;;3.47;;
66707;SDS011;53622;0.000;0.000;2023-10-13T02:53:10;4.03;;;3.63;;
66707;SDS011;53622;0.000;0.000;2023-10-13T02:55:50;3.58;;;3.28;;
66707;SDS011;53622;0.000;0.000;2023-10-13T02:58:19;3.80;;;3.40;;
66707;SDS011;53622;0.000;0.000;2023-10-13T03:00:48;3.90;;;3.60;;
66707;SDS011;53622;0.000;0.000;2023-10-13T03:03:16;3.80;;;3.50;;
66707;SDS011;53622;0.000;0.000;2023-10-13T03:05:46;4.00;;;3.70;;
66707;SDS011;53622;0.000;0.000;2023-10-13T03:08:14;4.00;;;3.63;;
66707;SDS011;53622;0.000;0.000;2023-10-13T03:10:55;3.80;;;3.40;;
66707;SDS011;53622;0.000;0.000;2023-10-13T03:13:24;3.95;;;3.58;;
66707;SDS011;53622;0.000;0.000;2023-10-13T03:15:53;4.20;;;3.80;;
66707;SDS011;53622;0.000;0.000;2023-10-13T03:18:22;3.45;;;3.15;;
66707;SDS011;53622;0.000;0.000;2023-10-13T03:20:52;4.03;;;3.28;;
66707;SDS011;53622;0.000;0.000;2023-10-13T03:23:24;3.72;;;3.42;;
66707;SDS011;53622;0.000;0.000;2023-10-13T03:25:54;4.07;;;3.60;;
66707;SDS011;53622;0.000;0.000;2023-10-13T03:28:23;4.13;;;3.83;;
66707;SDS011;53622;0.000;0.000;2023-10-13T03:30:55;4.20;;;3.80;;
66707;SDS011;53622;0.000;0.000;2023-10-13T03:33:28;3.33;;;3.10;;
66707;SDS011;53622;0.000;0.000;2023-10-13T03:36:00;4.35;;;3.42;;
66707;SDS011;53622;0.000;0.000;2023-10-13T03:38:33;4.20;;;3.80;;
66707;SDS011;53622;0.000;0.000;2023-10-13T03:41:07;3.63;;;3.30;;
66707;SDS011;53622;0.000;0.000;2023-10-13T03:43:45;3.42;;;3.20;;
66707;SDS011;53622;0.000;0.000;2023-10-13T03:46:19;3.58;;;3.28;;
66707;SDS011;53622;0.000;0.000;2023-10-13T03:48:49;3.88;;;3.58;;
66707;SDS011;53622;0.000;0.000;2023-10-13T03:51:22;4.00;;;3.60;;
66707;SDS011;53622;0.000;0.000;2023-10-13T03:53:58;3.72;;;3.30;;
66707;SDS011;53622;0.000;0.000;2023-10-13T03:56:36;4.60;;;3.72;;
66707;SDS011;53622;0.000;0.000;2023-10-13T03:59:08;3.88;;;3.58;;
66707;SDS011;53622;0.000;0.000;2023-10-13T04:01:47;3.85;;;3.55;;
66707;SDS011;53622;0.000;0.000;2023-10-13T04:04:26;3.67;;;3.38;;
66707;SDS011;53622;0.000;0.000;2023-10-13T04:07:04;3.78;;;3.10;;
66707;SDS011;53622;0.000;0.000;2023-10-13T04:10:06;6.32;;;3.22;;
66707;SDS011;53622;0.000;0.000;2023-10-13T04:12:55;4.88;;;3.50;;
66707;SDS011;53622;0.000;0.000;2023-10-13T04:15:42;4.25;;;3.50;;
66707;SDS011;53622;0.000;0.000;2023-10-13T04:18:29;4.80;;;3.30;;
66707;SDS011;53622;0.000;0.000;2023-10-13T04:21:14;3.55;;;3.25;;
66707;SDS011;53622;0.000;0.000;2023-10-13T04:24:07;3.50;;;3.20;;
66707;SDS011;53622;0.000;0.000;2023-10-13T04:26:36;5.85;;;3.30;;
66707;SDS011;53622;0.000;0.000;2023-10-13T04:29:26;3.50;;;3.20;;
66707;SDS011;53622;0.000;0.000;2023-10-13T04:32:12;4.03;;;3.10;;
66707;SDS011;53622;0.000;0.000;2023-10-13T04:34:42;3.90;;;3.50;;
66707;SDS011;53622;0.000;0.000;2023-10-13T04:37:13;3.42;;;3.13;;
66707;SDS011;53622;0.000;0.000;2023-10-13T04:39:56;3.92;;;3.63;;
66707;SDS011;53622;0.000;0.000;2023-10-13T04:42:33;4.50;;;3.28;;
66707;SDS011;53622;0.000;0.000;2023-10-13T04:45:18;4.22;;;3.47;;
66707;SDS011;53622;0.000;0.000;2023-10-13T04:48:06;4.15;;;3.33;;
66707;SDS011;53622;0.000;0.000;2023-10-13T04:50:45;4.55;;;3.60;;
66707;SDS011;53622;0.000;0.000;2023-10-13T04:53:18;4.28;;;3.20;;
66707;SDS011;53622;0.000;0.000;2023-10-13T04:56:00;4.28;;;3.63;;
66707;SDS011;53622;0.000;0.000;2023-10-13T04:58:56;3.95;;;3.40;;
66707;SDS011;53622;0.000;0.000;2023-10-13T05:01:43;4.43;;;2.78;;
66707;SDS011;53622;0.000;0.000;2023-10-13T05:04:50;4.20;;;2.75;;
66707;SDS011;53622;0.000;0.000;2023-10-13T05:07:36;3.42;;;3.13;;
66707;SDS011;53622;0.000;0.000;2023-10-13T05:10:23;3.42;;;3.13;;
66707;SDS011;53622;0.000;0.000;2023-10-13T05:13:09;4.22;;;3.30;;
66707;SDS011;53622;0.000;0.000;2023-10-13T05:15:56;3.45;;;3.15;;
66707;SDS011;53622;0.000;0.000;2023-10-13T05:18:44;4.80;;;3.47;;
66707;SDS011;53622;0.000;0.000;2023-10-13T05:21:30;4.82;;;3.10;;
66707;SDS011;53622;0.000;0.000;2023-10-13T05:24:17;3.45;;;2.90;;
66707;SDS011;53622;0.000;0.000;2023-10-13T05:27:03;5.32;;;3.40;;
66707;SDS011;53622;0.000;0.000;2023-10-13T05:30:05;4.85;;;3.30;;
66707;SDS011;53622;0.000;0.000;2023-10-13T05:32:53;5.65;;;3.35;;
66707;SDS011;53622;0.000;0.000;2023-10-13T05:35:41;4.70;;;3.72;;
66707;SDS011;53622;0.000;0.000;2023-10-13T05:38:30;7.43;;;3.35;;
66707;SDS011;53622;0.000;0.000;2023-10-13T05:41:13;3.92;;;3.42;;
66707;SDS011;53622;0.000;0.000;2023-10-13T05:44:08;4.50;;;3.55;;
66707;SDS011;53622;0.000;0.000;2023-10-13T05:47:11;6.25;;;3.53;;
66707;SDS011;53622;0.000;0.000;2023-10-13T05:50:05;4.47;;;3.20;;
66707;SDS011;53622;0.000;0.000;2023-10-13T05:52:58;9.57;;;3.70;;
66707;SDS011;53622;0.000;0.000;2023-10-13T05:55:46;6.35;;;3.67;;
66707;SDS011;53622;0.000;0.000;2023-10-13T05:58:35;5.97;;;3.90;;
66707;SDS011;53622;0.000;0.000;2023-10-13T06:01:27;6.70;;;3.80;;
66707;SDS011;53622;0.000;0.000;2023-10-13T06:04:15;7.68;;;4.03;;
66707;SDS011;53622;0.000;0.000;2023-10-13T06:07:05;5.85;;;4.03;;
66707;SDS011;53622;0.000;0.000;2023-10-13T06:10:09;4.03;;;3.72;;
66707;SDS011;53622;0.000;0.000;2023-10-13T06:13:00;4.07;;;3.50;;
66707;SDS011;53622;0.000;0.000;2023-10-13T06:15:47;4.75;;;3.63;;
66707;SDS011;53622;0.000;0.000;2023-10-13T06:18:35;4.97;;;3.72;;
66707;SDS011;53622;0.000;0.000;2023-10-13T06:21:25;4.53;;;3.88;;
66707;SDS011;53622;0.000;0.000;2023-10-13T06:24:14;3.90;;;3.58;;
66707;SDS011;53622;0.000;0.000;2023-10-13T06:27:04;4.43;;;3.65;;
66707;SDS011;53622;0.000;0.000;2023-10-13T06:29:52;4.35;;;3.55;;
66707;SDS011;53622;0.000;0.000;2023-10-13T06:32:30;3.85;;;3.50;;
66707;SDS011;53622;0.000;0.000;2023-10-13T06:35:16;3.85;;;3.55;;
66707;SDS011;53622;0.000;0.000;2023-10-13T06:37:58;3.95;;;3.55;;
66707;SDS011;53622;0.000;0.000;2023-10-13T06:40:45;6.20;;;4.97;;
66707;SDS011;53622;0.000;0.000;2023-10-13T06:43:30;6.32;;;4.20;;
66707;SDS011;53622;0.000;0.000;2023-10-13T06:46:24;5.68;;;3.67;;
66707;SDS011;53622;0.000;0.000;2023-10-13T06:49:07;3.95;;;3.55;;
66707;SDS011;53622;0.000;0.000;2023-10-13T06:51:49;4.00;;;3.30;;
66707;SDS011;53622;0.000;0.000;2023-10-13T06:54:33;4.18;;;3.78;;
66707;SDS011;53622;0.000;0.000;2023-10-13T06:57:08;5.80;;;3.63;;
66707;SDS011;53622;0.000;0.000;2023-10-13T06:59:42;4.85;;;3.42;;
66707;SDS011;53622;0.000;0.000;2023-10-13T07:02:11;4.13;;;3.72;;
66707;SDS011;53622;0.000;0.000;2023-10-13T07:04:51;5.03;;;3.08;;
66707;SDS011;53622;0.000;0.000;2023-10-13T07:07:24;4.22;;;3.83;;
66707;SDS011;53622;0.000;0.000;2023-10-13T07:09:53;4.03;;;3.63;;
66707;SDS011;53622;0.000;0.000;2023-10-13T07:12:25;5.53;;;3.55;;
66707;SDS011;53622;0.000;0.000;2023-10-13T07:14:55;4.85;;;3.88;;
66707;SDS011;53622;0.000;0.000;2023-10-13T07:17:38;5.78;;;3.88;;
66707;SDS011;53622;0.000;0.000;2023-10-13T07:20:08;4.45;;;3.92;;
66707;SDS011;53622;0.000;0.000;2023-10-13T07:22:50;4.15;;;3.72;;
66707;SDS011;53622;0.000;0.000;2023-10-13T07:25:30;3.67;;;3.38;;
66707;SDS011;53622;0.000;0.000;2023-10-13T07:28:04;4.40;;;4.00;;
66707;SDS011;53622;0.000;0.000;2023-10-13T07:30:39;6.68;;;4.00;;
66707;SDS011;53622;0.000;0.000;2023-10-13T07:33:09;4.45;;;4.03;;
66707;SDS011;53622;0.000;0.000;2023-10-13T07:35:40;3.97;;;3.67;;
66707;SDS011;53622;0.000;0.000;2023-10-13T07:38:09;5.15;;;4.13;;
66707;SDS011;53622;0.000;0.000;2023-10-13T07:40:42;4.55;;;3.40;;
66707;SDS011;53622;0.000;0.000;2023-10-13T07:43:29;4.20;;;3.80;;
66707;SDS011;53622;0.000;0.000;2023-10-13T07:46:12;5.28;;;4.10;;
66707;SDS011;53622;0.000;0.000;2023-10-13T07:48:42;4.47;;;3.90;;
66707;SDS011;53622;0.000;0.000;2023-10-13T07:51:12;4.40;;;3.92;;
66707;SDS011;53622;0.000;0.000;2023-10-13T07:53:43;4.85;;;4.20;;
66707;SDS011;53622;0.000;0.000;2023-10-13T07:56:15;4.40;;;3.90;;
66707;SDS011;53622;0.000;0.000;2023-10-13T07:58:46;5.10;;;4.55;;
66707;SDS011;53622;0.000;0.000;2023-10-13T08:01:32;5.18;;;3.97;;
66707;SDS011;53622;0.000;0.000;2023-10-13T08:04:01;4.60;;;4.18;;
66707;SDS011;53622;0.000;0.000;2023-10-13T08:06:38;4.97;;;4.47;;
66707;SDS011;53622;0.000;0.000;2023-10-13T08:09:11;4.82;;;4.40;;
66707;SDS011;53622;0.000;0.000;2023-10-13T08:11:53;6.03;;;4.68;;
66707;SDS011;53622;0.000;0.000;2023-10-13T08:14:22;4.72;;;4.32;;
66707;SDS011;53622;0.000;0.000;2023-10-13T08:17:07;4.80;;;4.40;;
66707;SDS011;53622;0.000;0.000;2023-10-13T08:19:38;5.15;;;4.65;;
66707;SDS011;53622;0.000;0.000;2023-10-13T08:22:13;5.85;;;4.75;;
66707;SDS011;53622;0.000;0.000;2023-10-13T08:24:52;5.78;;;5.28;;
66707;SDS011;53622;0.000;0.000;2023-10-13T08:27:23;5.75;;;4.53;;
66707;SDS011;53622;0.000;0.000;2023-10-13T08:30:16;6.65;;;4.78;;
66707;SDS011;53622;0.000;0.000;2023-10-13T08:33:06;5.55;;;4.53;;
66707;SDS011;53622;0.000;0.000;2023-10-13T08:35:45;8.15;;;4.90;;
66707;SDS011;53622;0.000;0.000;2023-10-13T08:38:33;5.28;;;4.78;;
66707;SDS011;53622;0.000;0.000;2023-10-13T08:41:19;5.20;;;4.70;;
66707;SDS011;53622;0.000;0.000;2023-10-13T08:44:02;6.80;;;5.35;;
66707;SDS011;53622;0.000;0.000;2023-10-13T08:46:37;8.70;;;4.75;;
66707;SDS011;53622;0.000;0.000;2023-10-13T08:49:34;8.57;;;5.40;;
66707;SDS011;53622;0.000;0.000;2023-10-13T08:52:13;5.63;;;5.10;;
66707;SDS011;53622;0.000;0.000;2023-10-13T08:55:01;6.13;;;4.97;;
66707;SDS011;53622;0.000;0.000;2023-10-13T08:57:56;7.68;;;5.10;;
66707;SDS011;53622;0.000;0.000;2023-10-13T09:00:31;5.70;;;4.93;;
66707;SDS011;53622;0.000;0.000;2023-10-13T09:03:15;9.30;;;5.57;;
66707;SDS011;53622;0.000;0.000;2023-10-13T09:06:10;6.22;;;5.63;;
66707;SDS011;53622;0.000;0.000;2023-10-13T09:08:42;7.65;;;5.90;;
66707;SDS011;53622;0.000;0.000;2023-10-13T09:11:33;7.85;;;5.63;;
66707;SDS011;53622;0.000;0.000;2023-10-13T09:14:16;8.13;;;5.93;;
66707;SDS011;53622;0.000;0.000;2023-10-13T09:17:03;7.03;;;5.65;;
66707;SDS011;53622;0.000;0.000;2023-10-13T09:19:48;9.43;;;5.90;;
66707;SDS011;53622;0.000;0.000;2023-10-13T09:22:24;7.55;;;6.00;;
66707;SDS011;53622;0.000;0.000;2023-10-13T09:24:55;8.75;;;5.90;;
66707;SDS011;53622;0.000;0.000;2023-10-13T09:27:27;7.82;;;6.20;;
66707;SDS011;53622;0.000;0.000;2023-10-13T09:29:57;9.93;;;6.30;;
66707;SDS011;53622;0.000;0.000;2023-10-13T09:32:33;7.28;;;5.82;;
66707;SDS011;53622;0.000;0.000;2023-10-13T09:35:16;10.07;;;6.18;;
66707;SDS011;53622;0.000;0.000;2023-10-13T09:37:47;6.60;;;5.90;;
66707;SDS011;53622;0.000;0.000;2023-10-13T09:40:18;9.45;;;6.15;;
66707;SDS011;53622;0.000;0.000;2023-10-13T09:42:52;6.68;;;5.55;;
66707;SDS011;53622;0.000;0.000;2023-10-13T09:45:26;6.88;;;6.28;;
66707;SDS011;53622;0.000;0.000;2023-10-13T09:48:01;8.45;;;6.03;;
66707;SDS011;53622;0.000;0.000;2023-10-13T09:50:36;9.30;;;6.10;;
66707;SDS011;53622;0.000;0.000;2023-10-13T09:53:09;6.68;;;5.97;;
66707;SDS011;53622;0.000;0.000;2023-10-13T09:55:42;6.97;;;6.22;;
66707;SDS011;53622;0.000;0.000;2023-10-13T09:58:12;6.63;;;5.88;;
66707;SDS011;53622;0.000;0.000;2023-10-13T10:00:47;6.65;;;6.00;;
66707;SDS011;53622;0.000;0.000;2023-10-13T10:03:43;7.00;;;6.10;;
66707;SDS011;53622;0.000;0.000;2023-10-13T10:06:22;7.45;;;5.82;;
66707;SDS011;53622;0.000;0.000;2023-10-13T10:09:09;7.00;;;5.57;;
66707;SDS011;53622;0.000;0.000;2023-10-13T10:14:52;8.02;;;6.40;;
66707;SDS011;53622;0.000;0.000;2023-10-13T10:17:38;8.25;;;7.32;;
66707;SDS011;53622;0.000;0.000;2023-10-13T10:20:09;10.30;;;7.68;;
66707;SDS011;53622;0.000;0.000;2023-10-13T10:25:41;9.77;;;7.65;;
66707;SDS011;53622;0.000;0.000;2023-10-13T10:28:11;10.45;;;7.35;;
66707;SDS011;53622;0.000;0.000;2023-10-13T10:30:43;9.82;;;8.85;;
66707;SDS011;53622;0.000;0.000;2023-10-13T10:33:12;9.25;;;7.82;;
66707;SDS011;53622;0.000;0.000;2023-10-13T10:35:43;8.75;;;7.47;;
66707;SDS011;53622;0.000;0.000;2023-10-13T10:38:13;8.50;;;6.65;;
66707;SDS011;53622;0.000;0.000;2023-10-13T10:41:02;8.68;;;6.68;;
66707;SDS011;53622;0.000;0.000;2023-10-13T10:43:36;11.43;;;6.35;;
66707;SDS011;53622;0.000;0.000;2023-10-13T10:46:13;8.48;;;6.07;;
66707;SDS011;53622;0.000;0.000;2023-10-13T10:48:44;8.90;;;6.68;;
66707;SDS011;53622;0.000;0.000;2023-10-13T10:51:14;7.78;;;6.40;;
66707;SDS011;53622;0.000;0.000;2023-10-13T10:53:48;7.22;;;6.40;;
66707;SDS011;53622;0.000;0.000;2023-10-13T10:56:22;6.63;;;5.90;;
66707;SDS011;53622;0.000;0.000;2023-10-13T10:58:53;8.02;;;6.35;;
66707;SDS011;53622;0.000;0.000;2023-10-13T11:01:24;9.50;;;6.18;;
66707;SDS011;53622;0.000;0.000;2023-10-13T11:04:02;8.32;;;5.90;;
66707;SDS011;53622;0.000;0.000;2023-10-13T11:06:45;8.93;;;5.78;;
66707;SDS011;53622;0.000;0.000;2023-10-13T11:09:14;6.13;;;5.45;;
66707;SDS011;53622;0.000;0.000;2023-10-13T11:12:10;8.25;;;5.82;;
66707;SDS011;53622;0.000;0.000;2023-10-13T11:14:43;7.03;;;5.97;;
66707;SDS011;53622;0.000;0.000;2023-10-13T11:17:19;7.85;;;5.70;;
66707;SDS011;53622;0.000;0.000;2023-10-13T11:19:52;7.05;;;5.30;;
66707;SDS011;53622;0.000;0.000;2023-10-13T11:22:23;6.53;;;5.85;;
66707;SDS011;53622;0.000;0.000;2023-10-13T11:25:00;6.15;;;5.63;;
66707;SDS011;53622;0.000;0.000;2023-10-13T11:27:38;6.70;;;5.45;;
66707;SDS011;53622;0.000;0.000;2023-10-13T11:30:24;7.18;;;5.30;;
66707;SDS011;53622;0.000;0.000;2023-10-13T11:33:09;7.63;;;5.72;;
66707;SDS011;53622;0.000;0.000;2023-10-13T11:35:39;6.50;;;5.68;;
66707;SDS011;53622;0.000;0.000;2023-10-13T11:38:23;5.82;;;5.20;;
66707;SDS011;53622;0.000;0.000;2023-10-13T11:40:56;6.22;;;5.63;;
66707;SDS011;53622;0.000;0.000;2023-10-13T11:43:37;9.05;;;5.93;;
66707;SDS011;53622;0.000;0.000;2023-10-13T11:46:26;6.10;;;5.57;;
66707;SDS011;53622;0.000;0.000;2023-10-13T11:49:13;7.47;;;5.63;;
66707;SDS011;53622;0.000;0.000;2023-10-13T11:51:47;7.82;;;5.65;;
66707;SDS011;53622;0.000;0.000;2023-10-13T11:54:17;6.50;;;5.07;;
66707;SDS011;53622;0.000;0.000;2023-10-13T11:56:49;6.38;;;5.50;;
66707;SDS011;53622;0.000;0.000;2023-10-13T11:59:20;6.75;;;6.03;;
66707;SDS011;53622;0.000;0.000;2023-10-13T12:01:54;8.52;;;5.95;;
66707;SDS011;53622;0.000;0.000;2023-10-13T12:04:41;6.68;;;5.65;;
66707;SDS011;53622;0.000;0.000;2023-10-13T12:07:16;6.97;;;5.90;;
66707;SDS011;53622;0.000;0.000;2023-10-13T12:09:49;9.15;;;5.65;;
66707;SDS011;53622;0.000;0.000;2023-10-13T12:12:42;6.70;;;6.00;;
66707;SDS011;53622;0.000;0.000;2023-10-13T12:15:15;6.15;;;5.53;;
66707;SDS011;53622;0.000;0.000;2023-10-13T12:17:57;6.55;;;5.88;;
66707;SDS011;53622;0.000;0.000;2023-10-13T12:20:30;10.23;;;5.95;;
66707;SDS011;53622;0.000;0.000;2023-10-13T12:23:03;7.18;;;5.55;;
66707;SDS011;53622;0.000;0.000;2023-10-13T12:25:43;6.38;;;5.70;;
66707;SDS011;53622;0.000;0.000;2023-10-13T12:28:22;7.10;;;5.63;;
66707;SDS011;53622;0.000;0.000;2023-10-13T12:30:56;8.35;;;5.93;;
66707;SDS011;53622;0.000;0.000;2023-10-13T12:33:34;6.35;;;5.75;;
66707;SDS011;53622;0.000;0.000;2023-10-13T12:36:08;8.00;;;6.05;;
66707;SDS011;53622;0.000;0.000;2023-10-13T12:38:57;7.55;;;5.95;;
66707;SDS011;53622;0.000;0.000;2023-10-13T12:41:44;6.97;;;6.30;;
66707;SDS011;53622;0.000;0.000;2023-10-13T12:44:30;7.22;;;5.65;;
66707;SDS011;53622;0.000;0.000;2023-10-13T12:47:18;6.93;;;6.00;;
66707;SDS011;53622;0.000;0.000;2023-10-13T12:50:05;6.53;;;5.68;;
66707;SDS011;53622;0.000;0.000;2023-10-13T12:52:50;6.75;;;6.10;;
66707;SDS011;53622;0.000;0.000;2023-10-13T12:55:20;6.88;;;5.70;;
66707;SDS011;53622;0.000;0.000;2023-10-13T12:57:52;5.97;;;5.43;;
66707;SDS011;53622;0.000;0.000;2023-10-13T13:00:21;6.72;;;6.03;;
66707;SDS011;53622;0.000;0.000;2023-10-13T13:03:02;7.07;;;6.38;;
66707;SDS011;53622;0.000;0.000;2023-10-13T13:05:39;6.30;;;5.70;;
66707;SDS011;53622;0.000;0.000;2023-10-13T13:08:12;6.28;;;5.50;;
66707;SDS011;53622;0.000;0.000;2023-10-13T13:10:49;6.80;;;6.20;;
66707;SDS011;53622;0.000;0.000;2023-10-13T13:13:20;7.55;;;5.80;;
66707;SDS011;53622;0.000;0.000;2023-10-13T13:15:52;7.13;;;5.93;;
66707;SDS011;53622;0.000;0.000;2023-10-13T13:18:24;7.30;;;6.60;;
66707;SDS011;53622;0.000;0.000;2023-10-13T13:20:53;7.03;;;5.78;;
66707;SDS011;53622;0.000;0.000;2023-10-13T13:23:22;6.07;;;5.45;;
66707;SDS011;53622;0.000;0.000;2023-10-13T13:25:53;6.25;;;5.72;;
66707;SDS011;53622;0.000;0.000;2023-10-13T13:28:25;5.93;;;5.43;;
66707;SDS011;53622;0.000;0.000;2023-10-13T13:30:57;7.13;;;6.43;;
66707;SDS011;53622;0.000;0.000;2023-10-13T13:33:27;7.68;;;6.07;;
66707;SDS011;53622;0.000;0.000;2023-10-13T13:36:00;6.57;;;5.82;;
66707;SDS011;53622;0.000;0.000;2023-10-13T13:38:31;6.32;;;5.60;;
66707;SDS011;53622;0.000;0.000;2023-10-13T13:41:00;7.07;;;5.93;;
66707;SDS011;53622;0.000;0.000;2023-10-13T13:43:36;7.32;;;5.85;;
66707;SDS011;53622;0.000;0.000;2023-10-13T13:46:06;6.32;;;5.65;;
66707;SDS011;53622;0.000;0.000;2023-10-13T13:48:39;6.85;;;5.93;;
66707;SDS011;53622;0.000;0.000;2023-10-13T13:51:09;5.93;;;5.38;;
66707;SDS011;53622;0.000;0.000;2023-10-13T13:53:42;6.97;;;5.45;;
66707;SDS011;53622;0.000;0.000;2023-10-13T13:56:15;7.38;;;5.78;;
66707;SDS011;53622;0.000;0.000;2023-10-13T13:58:46;6.25;;;5.55;;
66707;SDS011;53622;0.000;0.000;2023-10-13T14:01:17;7.53;;;5.63;;
66707;SDS011;53622;0.000;0.000;2023-10-13T14:03:48;8.52;;;5.28;;
66707;SDS011;53622;0.000;0.000;2023-10-13T14:06:19;7.95;;;6.15;;
66707;SDS011;53622;0.000;0.000;2023-10-13T14:08:51;6.20;;;5.60;;
66707;SDS011;53622;0.000;0.000;2023-10-13T14:11:24;7.32;;;6.15;;
66707;SDS011;53622;0.000;0.000;2023-10-13T14:14:08;10.07;;;5.57;;
66707;SDS011;53622;0.000;0.000;2023-10-13T14:16:56;7.13;;;6.03;;
66707;SDS011;53622;0.000;0.000;2023-10-13T14:19:36;6.03;;;5.50;;
66707;SDS011;53622;0.000;0.000;2023-10-13T14:22:08;7.82;;;5.60;;
66707;SDS011;53622;0.000;0.000;2023-10-13T14:24:40;10.40;;;5.80;;
66707;SDS011;53622;0.000;0.000;2023-10-13T14:27:15;5.78;;;5.28;;
66707;SDS011;53622;0.000;0.000;2023-10-13T14:29:46;6.45;;;5.70;;
66707;SDS011;53622;0.000;0.000;2023-10-13T14:32:20;6.63;;;5.60;;
66707;SDS011;53622;0.000;0.000;2023-10-13T14:34:53;8.63;;;5.60;;
66707;SDS011;53622;0.000;0.000;2023-10-13T14:37:23;8.10;;;5.20;;
66707;SDS011;53622;0.000;0.000;2023-10-13T14:39:58;6.10;;;5.50;;
66707;SDS011;53622;0.000;0.000;2023-10-13T14:42:28;7.25;;;5.47;;
66707;SDS011;53622;0.000;0.000;2023-10-13T14:45:03;7.13;;;5.25;;
66707;SDS011;53622;0.000;0.000;2023-10-13T14:47:39;6.95;;;5.43;;
66707;SDS011;53622;0.000;0.000;2023-10-13T14:50:10;7.05;;;5.22;;
66707;SDS011;53622;0.000;0.000;2023-10-13T14:52:48;6.28;;;5.45;;
66707;SDS011;53622;0.000;0.000;2023-10-13T14:55:18;6.03;;;5.05;;
66707;SDS011;53622;0.000;0.000;2023-10-13T14:57:49;6.93;;;5.45;;
66707;SDS011;53622;0.000;0.000;2023-10-13T15:00:21;5.70;;;5.13;;
66707;SDS011;53622;0.000;0.000;2023-10-13T15:02:53;7.28;;;5.22;;
66707;SDS011;53622;0.000;0.000;2023-10-13T15:05:24;7.35;;;5.13;;
66707;SDS011;53622;0.000;0.000;2023-10-13T15:07:56;6.75;;;4.88;;
66707;SDS011;53622;0.000;0.000;2023-10-13T15:10:26;9.07;;;5.30;;
66707;SDS011;53622;0.000;0.000;2023-10-13T15:12:55;7.45;;;5.47;;
66707;SDS011;53622;0.000;0.000;2023-10-13T15:15:26;7.55;;;5.40;;
66707;SDS011;53622;0.000;0.000;2023-10-13T15:17:59;6.93;;;5.22;;
66707;SDS011;53622;0.000;0.000;2023-10-13T15:20:29;5.68;;;5.10;;
66707;SDS011;53622;0.000;0.000;2023-10-13T15:22:58;7.75;;;5.45;;
66707;SDS011;53622;0.000;0.000;2023-10-13T15:25:28;6.85;;;5.57;;
66707;SDS011;53622;0.000;0.000;2023-10-13T15:28:06;6.05;;;5.13;;
66707;SDS011;53622;0.000;0.000;2023-10-13T15:30:37;6.07;;;5.22;;
66707;SDS011;53622;0.000;0.000;2023-10-13T15:33:18;8.93;;;5.72;;
66707;SDS011;53622;0.000;0.000;2023-10-13T15:35:49;5.68;;;5.13;;
66707;SDS011;53622;0.000;0.000;2023-10-13T15:38:18;6.13;;;5.55;;
66707;SDS011;53622;0.000;0.000;2023-10-13T15:40:49;6.93;;;5.57;;
66707;SDS011;53622;0.000;0.000;2023-10-13T15:43:22;5.57;;;4.90;;
66707;SDS011;53622;0.000;0.000;2023-10-13T15:45:51;5.50;;;5.00;;
66707;SDS011;53622;0.000;0.000;2023-10-13T15:48:20;5.30;;;4.80;;
66707;SDS011;53622;0.000;0.000;2023-10-13T15:50:53;5.82;;;5.30;;
66707;SDS011;53622;0.000;0.000;2023-10-13T15:53:22;6.00;;;5.50;;
66707;SDS011;53622;0.000;0.000;2023-10-13T15:55:52;8.60;;;5.57;;
66707;SDS011;53622;0.000;0.000;2023-10-13T15:58:22;5.15;;;4.72;;
66707;SDS011;53622;0.000;0.000;2023-10-13T16:00:55;6.32;;;5.35;;
66707;SDS011;53622;0.000;0.000;2023-10-13T16:03:32;7.40;;;5.53;;
66707;SDS011;53622;0.000;0.000;2023-10-13T16:06:16;5.18;;;4.75;;